Time;durP1;ratioP1;P1;durP2;ratioP2;P2;SDS_P1;SDS_P2;PMS_P1;PMS_P2;Temp;Humidity;BMP_temperature;BMP_pressure;BME280_temperature;BME280_humidity;BME280_pressure;Samples;Min_cycle;Max_cycle;Signal;HPM_P1;HPM_P2
2022/12/27 00:01:32;;;;;;;2.50;0.88;;;;;;;;;;8332989;28;20928;-62
2022/12/27 00:05:33;;;;;;;3.65;0.82;;;;;;;;;;8330452;28;20029;-62
2022/12/27 00:09:33;;;;;;;1.33;0.63;;;;;;;;;;8328491;28;20704;-63
2022/12/27 00:13:33;;;;;;;2.33;0.73;;;;;;;;;;8333903;28;20027;-62
2022/12/27 00:17:34;;;;;;;5.75;1.02;;;;;;;;;;8328997;28;20030;-62
2022/12/27 00:21:35;;;;;;;2.05;0.70;;;;;;;;;;8329145;28;20036;-62
2022/12/27 00:25:35;;;;;;;4.25;0.77;;;;;;;;;;8330114;28;20036;-62
2022/12/27 00:29:35;;;;;;;1.95;0.80;;;;;;;;;;8332836;28;20025;-62
2022/12/27 00:33:37;;;;;;;4.97;0.85;;;;;;;;;;8331077;28;20323;-62
2022/12/27 00:37:38;;;;;;;6.90;1.05;;;;;;;;;;8330027;28;20075;-62
2022/12/27 00:41:38;;;;;;;6.45;0.98;;;;;;;;;;8330145;28;20091;-62
2022/12/27 00:45:38;;;;;;;3.15;1.00;;;;;;;;;;8329590;28;20049;-62
2022/12/27 00:49:38;;;;;;;2.72;1.10;;;;;;;;;;8331605;28;20041;-62
2022/12/27 00:53:39;;;;;;;3.47;1.15;;;;;;;;;;8329396;28;20032;-62
2022/12/27 00:57:39;;;;;;;4.47;1.00;;;;;;;;;;8329492;28;20061;-62
2022/12/27 01:01:39;;;;;;;5.40;1.08;;;;;;;;;;8330195;28;20814;-62
2022/12/27 01:05:40;;;;;;;1.90;0.80;;;;;;;;;;8329065;28;20117;-63
2022/12/27 01:09:40;;;;;;;2.88;1.02;;;;;;;;;;8328168;28;20020;-62
2022/12/27 01:13:40;;;;;;;3.80;0.90;;;;;;;;;;8325630;28;20228;-62
2022/12/27 01:17:41;;;;;;;6.43;1.40;;;;;;;;;;8328233;28;20033;-62
2022/12/27 01:21:41;;;;;;;3.53;1.10;;;;;;;;;;8334642;28;20066;-62
2022/12/27 01:25:42;;;;;;;2.50;1.15;;;;;;;;;;8335365;28;20049;-62
2022/12/27 01:29:42;;;;;;;4.10;1.30;;;;;;;;;;8336284;28;20025;-62
2022/12/27 01:33:43;;;;;;;4.23;1.23;;;;;;;;;;8334013;28;20036;-62
2022/12/27 01:37:43;;;;;;;5.32;1.88;;;;;;;;;;8335207;28;20743;-62
2022/12/27 01:46:02;;;;;;;3.85;1.02;;;;;;;;;;8335226;28;20051;-62
2022/12/27 01:50:15;;;;;;;5.85;1.25;;;;;;;;;;8335488;28;20692;-62
2022/12/27 01:54:15;;;;;;;4.25;1.33;;;;;;;;;;8335376;28;20032;-62
2022/12/27 01:58:21;;;;;;;2.40;1.10;;;;;;;;;;8334607;28;20557;-62
2022/12/27 02:02:22;;;;;;;5.32;1.40;;;;;;;;;;8336010;28;20086;-62
2022/12/27 02:06:22;;;;;;;3.78;1.20;;;;;;;;;;8334303;28;20025;-62
2022/12/27 02:10:22;;;;;;;3.67;1.05;;;;;;;;;;8336129;28;20020;-62
2022/12/27 02:14:26;;;;;;;4.95;1.08;;;;;;;;;;8330846;28;20136;-62
2022/12/27 02:18:26;;;;;;;5.47;1.35;;;;;;;;;;8337483;28;20087;-62
2022/12/27 02:27:03;;;;;;;6.75;1.25;;;;;;;;;;8334573;28;20034;-62
2022/12/27 02:31:07;;;;;;;3.90;1.30;;;;;;;;;;8334575;28;20045;-64
2022/12/27 02:35:11;;;;;;;3.13;1.13;;;;;;;;;;8330646;28;20838;-62
2022/12/27 02:39:12;;;;;;;7.95;1.38;;;;;;;;;;8336941;28;20017;-62
2022/12/27 03:45:20;;;;;;;6.47;1.70;;;;;;;;;;8333046;28;20064;-62
2022/12/27 03:49:20;;;;;;;7.88;1.52;;;;;;;;;;8329933;28;20031;-63
2022/12/27 03:53:21;;;;;;;8.30;1.90;;;;;;;;;;8330306;28;20132;-62
2022/12/27 03:57:22;;;;;;;5.68;1.83;;;;;;;;;;8331598;28;20017;-63
2022/12/27 04:01:22;;;;;;;4.82;2.08;;;;;;;;;;8331287;28;20044;-62
2022/12/27 04:05:24;;;;;;;5.18;1.60;;;;;;;;;;8331168;28;20051;-63
2022/12/27 04:35:17;;;;;;;8.25;1.92;;;;;;;;;;8327379;28;20035;-63
2022/12/27 04:39:17;;;;;;;5.30;1.80;;;;;;;;;;8330429;28;20294;-62
2022/12/27 04:56:15;;;;;;;6.60;1.90;;;;;;;;;;8334393;28;20027;-62
2022/12/27 05:04:37;;;;;;;6.00;1.90;;;;;;;;;;8338185;28;20697;-63
2022/12/27 05:17:15;;;;;;;4.07;1.67;;;;;;;;;;8335612;28;20039;-62
2022/12/27 05:21:15;;;;;;;5.60;2.00;;;;;;;;;;8336275;28;20020;-62
2022/12/27 05:25:33;;;;;;;2.92;1.70;;;;;;;;;;8336961;28;20364;-62
2022/12/27 05:29:34;;;;;;;5.03;1.80;;;;;;;;;;8335588;28;20036;-62
2022/12/27 05:33:35;;;;;;;4.03;1.70;;;;;;;;;;8336311;28;20037;-62
2022/12/27 05:37:35;;;;;;;5.20;1.77;;;;;;;;;;8335212;28;20052;-62
2022/12/27 05:41:35;;;;;;;5.40;1.70;;;;;;;;;;8335531;28;20029;-62
2022/12/27 05:45:35;;;;;;;6.55;1.90;;;;;;;;;;8337950;28;20060;-62
2022/12/27 05:49:36;;;;;;;7.05;2.67;;;;;;;;;;8335891;28;20036;-62
2022/12/27 05:53:36;;;;;;;6.22;1.98;;;;;;;;;;8331980;28;20023;-62
2022/12/27 05:57:36;;;;;;;10.23;2.35;;;;;;;;;;8336730;28;20032;-62
2022/12/27 06:01:36;;;;;;;5.47;1.63;;;;;;;;;;8333109;28;20041;-62
2022/12/27 06:05:36;;;;;;;7.80;1.80;;;;;;;;;;8332694;28;20040;-62
2022/12/27 06:09:38;;;;;;;4.03;2.13;;;;;;;;;;8334475;28;20035;-62
2022/12/27 06:13:39;;;;;;;8.13;2.30;;;;;;;;;;8333677;28;20040;-62
2022/12/27 06:17:39;;;;;;;8.82;3.10;;;;;;;;;;8331693;28;20033;-62
2022/12/27 06:21:39;;;;;;;14.60;5.80;;;;;;;;;;8333805;28;20099;-62
2022/12/27 06:25:39;;;;;;;7.87;3.00;;;;;;;;;;8332298;28;20037;-62
2022/12/27 06:29:40;;;;;;;5.45;3.58;;;;;;;;;;8333317;28;20289;-62
2022/12/27 06:33:40;;;;;;;10.82;4.82;;;;;;;;;;8331980;28;20037;-62
2022/12/27 06:37:40;;;;;;;12.37;5.37;;;;;;;;;;8332640;28;20022;-62
2022/12/27 06:41:40;;;;;;;20.08;6.93;;;;;;;;;;8334667;28;20271;-62
2022/12/27 06:45:41;;;;;;;6.32;2.10;;;;;;;;;;8334540;28;20079;-62
2022/12/27 06:49:41;;;;;;;9.63;2.38;;;;;;;;;;8333531;28;20033;-62
2022/12/27 06:58:19;;;;;;;6.55;2.60;;;;;;;;;;8350224;28;20271;-63
2022/12/27 07:02:19;;;;;;;7.40;2.30;;;;;;;;;;8334883;28;20136;-63
2022/12/27 07:06:20;;;;;;;7.05;2.40;;;;;;;;;;8332792;28;20274;-63
2022/12/27 07:10:21;;;;;;;5.82;2.28;;;;;;;;;;8334480;28;20028;-63
2022/12/27 07:14:21;;;;;;;8.65;2.45;;;;;;;;;;8333206;28;20020;-62
2022/12/27 07:18:21;;;;;;;9.43;2.70;;;;;;;;;;8331478;28;20103;-62
2022/12/27 07:22:21;;;;;;;7.05;2.25;;;;;;;;;;8333246;28;20553;-62
2022/12/27 07:26:24;;;;;;;5.70;2.30;;;;;;;;;;8335960;28;20082;-62
2022/12/27 07:30:25;;;;;;;8.63;2.80;;;;;;;;;;8325270;28;20037;-62
2022/12/27 07:34:25;;;;;;;6.90;2.88;;;;;;;;;;8325133;28;20021;-63
2022/12/27 07:38:25;;;;;;;8.18;2.70;;;;;;;;;;8324100;28;20451;-62
2022/12/27 07:42:27;;;;;;;8.80;3.53;;;;;;;;;;8322569;28;20025;-62
2022/12/27 07:46:27;;;;;;;5.30;2.72;;;;;;;;;;8325638;28;20529;-62
2022/12/27 07:50:27;;;;;;;9.50;3.17;;;;;;;;;;8326813;28;20032;-62
2022/12/27 07:54:27;;;;;;;10.23;3.70;;;;;;;;;;8321400;28;20032;-62
2022/12/27 07:58:27;;;;;;;11.23;3.78;;;;;;;;;;8323465;28;20016;-62
2022/12/27 08:02:27;;;;;;;8.15;3.17;;;;;;;;;;8324954;28;20067;-62
2022/12/27 08:06:33;;;;;;;5.72;3.28;;;;;;;;;;8321839;28;20942;-62
2022/12/27 08:10:34;;;;;;;9.18;3.63;;;;;;;;;;8325235;28;20025;-62
2022/12/27 08:14:35;;;;;;;10.98;4.35;;;;;;;;;;8325712;28;20032;-62
2022/12/27 08:18:35;;;;;;;8.80;4.07;;;;;;;;;;8323929;28;20037;-62
2022/12/27 08:22:35;;;;;;;10.32;3.95;;;;;;;;;;8324160;28;20505;-62
2022/12/27 08:26:35;;;;;;;11.10;4.68;;;;;;;;;;8322720;28;20025;-62
2022/12/27 08:30:37;;;;;;;8.73;4.22;;;;;;;;;;8324253;28;21103;-62
2022/12/27 08:34:37;;;;;;;12.70;7.05;;;;;;;;;;8321631;28;20029;-62
2022/12/27 08:38:37;;;;;;;15.27;6.72;;;;;;;;;;8323570;28;20017;-62
2022/12/27 08:42:37;;;;;;;14.55;5.80;;;;;;;;;;8320325;28;20020;-62
2022/12/27 08:46:37;;;;;;;9.75;4.38;;;;;;;;;;8324589;28;20036;-62
2022/12/27 08:50:38;;;;;;;10.50;3.95;;;;;;;;;;8323800;28;20064;-63
2022/12/27 08:54:38;;;;;;;10.75;4.47;;;;;;;;;;8323672;28;20103;-63
2022/12/27 08:58:38;;;;;;;9.63;4.35;;;;;;;;;;8322565;28;20025;-63
2022/12/27 09:02:38;;;;;;;8.38;4.63;;;;;;;;;;8326820;28;20046;-62
2022/12/27 09:06:39;;;;;;;10.88;4.60;;;;;;;;;;8322865;28;20112;-63
2022/12/27 09:10:39;;;;;;;8.32;4.30;;;;;;;;;;8320197;28;20056;-63
2022/12/27 09:14:40;;;;;;;8.52;4.30;;;;;;;;;;8322382;28;20317;-63
2022/12/27 09:18:40;;;;;;;13.15;4.97;;;;;;;;;;8323530;28;20692;-62
2022/12/27 09:22:41;;;;;;;9.80;4.65;;;;;;;;;;8322702;28;20025;-62
2022/12/27 09:26:41;;;;;;;8.48;4.20;;;;;;;;;;8321918;28;20053;-62
2022/12/27 09:30:43;;;;;;;10.95;4.95;;;;;;;;;;8323340;28;20417;-62
2022/12/27 09:34:43;;;;;;;10.85;4.60;;;;;;;;;;8321837;28;20024;-62
2022/12/27 09:38:43;;;;;;;10.95;4.97;;;;;;;;;;8320864;28;20052;-62
2022/12/27 09:42:50;;;;;;;12.35;4.50;;;;;;;;;;8326630;28;20111;-62
2022/12/27 09:47:04;;;;;;;7.90;4.00;;;;;;;;;;8327285;28;20046;-62
2022/12/27 09:51:19;;;;;;;8.48;4.30;;;;;;;;;;8329001;28;20021;-62
2022/12/27 09:55:22;;;;;;;8.18;3.90;;;;;;;;;;8328312;28;20473;-64
2022/12/27 09:59:26;;;;;;;8.38;4.28;;;;;;;;;;8328697;28;20021;-62
2022/12/27 10:03:26;;;;;;;;;;;;;;;;;;8325949;28;20124;-62
2022/12/27 10:07:48;;;;;;;6.00;4.10;;;;;;;;;;8328873;28;19913;-63
2022/12/27 10:11:57;;;;;;;8.77;4.18;;;;;;;;;;8328438;28;20032;-62
2022/12/27 10:16:04;;;;;;;6.65;4.07;;;;;;;;;;8326552;28;20047;-63
2022/12/27 10:20:07;;;;;;;6.90;4.75;;;;;;;;;;8325989;28;20071;-62
2022/12/27 10:24:07;;;;;;;11.88;4.32;;;;;;;;;;8329312;28;20035;-63
2022/12/27 10:28:18;;;;;;;9.15;4.50;;;;;;;;;;8323874;28;20037;-63
2022/12/27 10:32:19;;;;;;;10.35;4.88;;;;;;;;;;8327779;28;20405;-63
2022/12/27 10:36:21;;;;;;;7.25;4.43;;;;;;;;;;8328631;28;20040;-63
2022/12/27 10:40:24;;;;;;;7.95;4.25;;;;;;;;;;8327229;28;20132;-63
2022/12/27 10:44:24;;;;;;;9.02;3.92;;;;;;;;;;8327694;28;20603;-63
2022/12/27 10:48:25;;;;;;;6.25;3.47;;;;;;;;;;8325896;28;21647;-63
2022/12/27 10:52:26;;;;;;;6.50;3.35;;;;;;;;;;8326538;28;20066;-62
2022/12/27 10:56:28;;;;;;;8.60;3.88;;;;;;;;;;8329035;28;20567;-63
2022/12/27 11:00:29;;;;;;;5.88;3.38;;;;;;;;;;8329361;28;20494;-63
2022/12/27 11:04:29;;;;;;;11.53;4.03;;;;;;;;;;8326745;28;20043;-62
2022/12/27 11:08:30;;;;;;;8.77;3.53;;;;;;;;;;8328310;28;20383;-62
2022/12/27 11:12:31;;;;;;;7.85;3.10;;;;;;;;;;8326079;28;20031;-62
2022/12/27 11:16:33;;;;;;;9.30;3.22;;;;;;;;;;8327082;28;20044;-63
2022/12/27 11:20:44;;;;;;;8.82;3.00;;;;;;;;;;8323968;28;20025;-62
2022/12/27 11:24:47;;;;;;;5.32;3.08;;;;;;;;;;8325508;28;20025;-63
2022/12/27 11:28:53;;;;;;;10.50;3.47;;;;;;;;;;8327091;28;20537;-63
2022/12/27 11:32:53;;;;;;;6.82;3.70;;;;;;;;;;8322535;28;20131;-63
2022/12/27 11:37:00;;;;;;;6.28;2.75;;;;;;;;;;8323657;28;20091;-63
2022/12/27 11:41:10;;;;;;;8.38;3.25;;;;;;;;;;8326889;28;20032;-63
2022/12/27 11:45:22;;;;;;;6.47;2.88;;;;;;;;;;8324937;28;20090;-63
2022/12/27 11:49:25;;;;;;;5.70;2.45;;;;;;;;;;8326334;28;20436;-63
2022/12/27 11:53:25;;;;;;;6.13;2.80;;;;;;;;;;8325733;28;20455;-63
2022/12/27 11:57:45;;;;;;;6.90;3.08;;;;;;;;;;8323031;28;20162;-63
2022/12/27 12:02:05;;;;;;;6.43;2.67;;;;;;;;;;8324372;28;20523;-65
2022/12/27 12:06:05;;;;;;;7.47;2.78;;;;;;;;;;8323360;28;20407;-64
2022/12/27 12:10:08;;;;;;;10.65;3.30;;;;;;;;;;8327297;28;20112;-63
2022/12/27 12:14:35;;;;;;;6.47;2.72;;;;;;;;;;8328023;28;20140;-63
2022/12/27 12:18:53;;;;;;;6.93;2.72;;;;;;;;;;8319830;28;20054;-63
2022/12/27 12:23:09;;;;;;;10.13;2.80;;;;;;;;;;8326703;28;20025;-63
2022/12/27 12:27:27;;;;;;;9.77;2.72;;;;;;;;;;8322586;28;20473;-63
2022/12/27 12:31:46;;;;;;;5.22;2.30;;;;;;;;;;8321186;28;20406;-64
2022/12/27 12:35:55;;;;;;;4.53;2.10;;;;;;;;;;8324155;28;20024;-63
2022/12/27 12:40:10;;;;;;;7.43;2.53;;;;;;;;;;8322559;28;20360;-63
2022/12/27 12:44:29;;;;;;;8.30;3.13;;;;;;;;;;8322447;28;20036;-64
2022/12/27 12:48:50;;;;;;;9.40;3.30;;;;;;;;;;8323855;28;20652;-63
2022/12/27 12:52:59;;;;;;;10.40;4.13;;;;;;;;;;8323339;28;20124;-64
2022/12/27 12:57:14;;;;;;;11.27;4.38;;;;;;;;;;8324844;28;20075;-63
2022/12/27 13:01:33;;;;;;;8.48;3.47;;;;;;;;;;8323419;28;20079;-64
2022/12/27 13:05:52;;;;;;;6.75;2.35;;;;;;;;;;8325569;28;20402;-64
2022/12/27 13:09:55;;;;;;;4.80;2.50;;;;;;;;;;8321354;28;20379;-63
2022/12/27 13:14:01;;;;;;;7.28;2.35;;;;;;;;;;8322451;28;20167;-63
2022/12/27 13:18:20;;;;;;;7.10;2.58;;;;;;;;;;8332298;28;20568;-63
2022/12/27 13:22:23;;;;;;;4.35;2.28;;;;;;;;;;8329315;28;20025;-63
2022/12/27 13:26:42;;;;;;;5.78;2.67;;;;;;;;;;8330874;28;20099;-63
2022/12/27 13:30:52;;;;;;;3.40;1.92;;;;;;;;;;8327469;28;20124;-64
2022/12/27 13:35:02;;;;;;;4.85;2.00;;;;;;;;;;8328705;28;20101;-64
2022/12/27 13:39:25;;;;;;;7.45;2.20;;;;;;;;;;8326348;28;20287;-66
2022/12/27 13:43:25;;;;;;;3.95;2.10;;;;;;;;;;8328384;28;20042;-68
2022/12/27 13:47:45;;;;;;;6.60;2.23;;;;;;;;;;8328140;28;20040;-63
2022/12/27 13:51:47;;;;;;;4.60;1.92;;;;;;;;;;8329827;28;20314;-63
2022/12/27 13:55:50;;;;;;;5.15;2.17;;;;;;;;;;8324827;28;20488;-63
2022/12/27 13:59:53;;;;;;;3.53;1.90;;;;;;;;;;8328982;28;20025;-63
2022/12/27 14:04:11;;;;;;;6.72;2.00;;;;;;;;;;8328843;28;20177;-63
2022/12/27 14:08:21;;;;;;;4.60;1.85;;;;;;;;;;8318519;28;20030;-63
2022/12/27 14:12:54;;;;;;;11.15;2.78;;;;;;;;;;8326385;28;20091;-63
2022/12/27 14:17:07;;;;;;;11.23;5.40;;;;;;;;;;8293384;28;20685;-63
2022/12/27 14:21:19;;;;;;;9.60;4.25;;;;;;;;;;8327166;28;20026;-63
2022/12/27 14:25:28;;;;;;;7.32;3.50;;;;;;;;;;8326552;28;20083;-64
2022/12/27 14:29:43;;;;;;;7.43;3.42;;;;;;;;;;8324375;28;20028;-63
2022/12/27 14:34:02;;;;;;;9.77;2.40;;;;;;;;;;8325316;28;20264;-63
2022/12/27 14:38:21;;;;;;;7.35;3.33;;;;;;;;;;8329927;28;20048;-63
2022/12/27 14:42:33;;;;;;;7.15;2.17;;;;;;;;;;8329356;28;20067;-63
2022/12/27 14:46:52;;;;;;;8.18;2.90;;;;;;;;;;8325306;28;20071;-63
2022/12/27 14:51:04;;;;;;;6.43;2.17;;;;;;;;;;8323578;28;20115;-63
2022/12/27 14:55:23;;;;;;;3.15;1.60;;;;;;;;;;8326419;28;20529;-63
2022/12/27 14:59:38;;;;;;;4.95;2.38;;;;;;;;;;8328424;28;20052;-64
2022/12/27 15:03:48;;;;;;;7.85;2.17;;;;;;;;;;8324376;28;20040;-63
2022/12/27 15:08:08;;;;;;;5.07;1.58;;;;;;;;;;8325530;28;20028;-63
2022/12/27 15:12:17;;;;;;;2.83;1.45;;;;;;;;;;8326606;28;20108;-64
2022/12/27 15:16:35;;;;;;;6.18;2.08;;;;;;;;;;8322996;28;20073;-63
2022/12/27 15:20:41;;;;;;;8.30;2.05;;;;;;;;;;8327244;28;20049;-64
2022/12/27 15:24:46;;;;;;;7.35;2.17;;;;;;;;;;8324806;28;20030;-63
2022/12/27 15:28:58;;;;;;;6.55;1.70;;;;;;;;;;8325082;28;20659;-64
2022/12/27 15:33:01;;;;;;;5.28;1.92;;;;;;;;;;8324240;28;20033;-63
2022/12/27 15:37:01;;;;;;;5.78;2.42;;;;;;;;;;8321774;28;20041;-64
2022/12/27 15:41:08;;;;;;;7.13;2.50;;;;;;;;;;8330143;28;20173;-64
2022/12/27 15:45:14;;;;;;;4.07;1.65;;;;;;;;;;8320007;28;20055;-64
2022/12/27 15:49:32;;;;;;;3.30;1.55;;;;;;;;;;8320857;28;20167;-64
2022/12/27 15:53:36;;;;;;;5.15;2.08;;;;;;;;;;8321644;28;20025;-65
2022/12/27 15:57:40;;;;;;;7.10;2.40;;;;;;;;;;8317379;28;20566;-65
2022/12/27 16:01:40;;;;;;;7.45;2.08;;;;;;;;;;8321787;28;20044;-64
2022/12/27 16:05:47;;;;;;;17.33;11.48;;;;;;;;;;8321488;28;20071;-64
2022/12/27 16:09:49;;;;;;;28.55;20.05;;;;;;;;;;8319495;28;20448;-64
2022/12/27 16:13:49;;;;;;;14.57;10.68;;;;;;;;;;8317494;28;20025;-64
2022/12/27 16:17:53;;;;;;;10.52;6.22;;;;;;;;;;8319761;28;20041;-64
2022/12/27 16:21:54;;;;;;;8.23;4.60;;;;;;;;;;8319260;28;20047;-64
2022/12/27 16:26:03;;;;;;;8.35;3.28;;;;;;;;;;8318705;28;20032;-65
2022/12/27 16:30:04;;;;;;;7.50;2.30;;;;;;;;;;8320634;28;20373;-64
2022/12/27 16:34:19;;;;;;;10.45;3.60;;;;;;;;;;8321028;28;20372;-64
2022/12/27 16:38:20;;;;;;;4.97;2.60;;;;;;;;;;8320987;28;20032;-64
2022/12/27 16:42:25;;;;;;;5.63;2.50;;;;;;;;;;8320806;28;20440;-64
2022/12/27 16:46:31;;;;;;;4.47;2.15;;;;;;;;;;8317575;28;20033;-64
2022/12/27 16:50:50;;;;;;;3.70;1.95;;;;;;;;;;8324970;28;20163;-64
2022/12/27 16:54:56;;;;;;;7.93;1.85;;;;;;;;;;8323939;28;20052;-64
2022/12/27 16:58:56;;;;;;;3.92;1.73;;;;;;;;;;8326255;28;20025;-64
2022/12/27 17:03:16;;;;;;;4.53;2.30;;;;;;;;;;8320357;28;20163;-64
2022/12/27 17:07:40;;;;;;;7.93;2.53;;;;;;;;;;8324720;28;20090;-64
2022/12/27 17:11:40;;;;;;;8.93;2.40;;;;;;;;;;8325863;28;20134;-64
2022/12/27 17:15:45;;;;;;;6.75;3.45;;;;;;;;;;8330512;28;20025;-63
2022/12/27 17:19:48;;;;;;;5.97;3.25;;;;;;;;;;8333003;28;20132;-64
2022/12/27 17:23:49;;;;;;;7.47;3.57;;;;;;;;;;8334286;28;20020;-64
2022/12/27 17:27:56;;;;;;;7.18;3.40;;;;;;;;;;8334223;28;20021;-64
2022/12/27 17:32:02;;;;;;;7.47;3.25;;;;;;;;;;8333798;28;20950;-64
2022/12/27 17:36:08;;;;;;;4.95;3.28;;;;;;;;;;8327763;28;20119;-64
2022/12/27 17:40:09;;;;;;;9.25;3.58;;;;;;;;;;8325648;28;20396;-64
2022/12/27 17:48:35;;;;;;;11.88;4.90;;;;;;;;;;8323227;28;20044;-64
2022/12/27 18:01:20;;;;;;;21.77;8.57;;;;;;;;;;8319831;28;20039;-64
2022/12/27 18:05:24;;;;;;;14.10;6.13;;;;;;;;;;8321083;28;20063;-64
2022/12/27 18:09:24;;;;;;;;;;;;;;;;;;8319772;28;20358;-64
2022/12/27 18:13:26;;;;;;;8.98;4.10;;;;;;;;;;8322318;28;19917;-64
2022/12/27 18:17:30;;;;;;;7.22;2.47;;;;;;;;;;8319239;28;20033;-63
2022/12/27 18:21:30;;;;;;;3.30;1.83;;;;;;;;;;8320685;28;20438;-64
2022/12/27 18:25:32;;;;;;;7.47;2.47;;;;;;;;;;8319382;28;20211;-63
2022/12/27 18:29:33;;;;;;;11.80;2.58;;;;;;;;;;8318528;28;20037;-63
2022/12/27 18:33:33;;;;;;;4.85;1.92;;;;;;;;;;8316634;28;20079;-63
2022/12/27 18:37:35;;;;;;;4.90;1.98;;;;;;;;;;8318394;28;20510;-64
2022/12/27 18:41:43;;;;;;;5.03;1.42;;;;;;;;;;8326157;28;20017;-63
2022/12/27 18:45:43;;;;;;;5.13;1.85;;;;;;;;;;8329466;28;20037;-63
2022/12/27 18:49:44;;;;;;;4.43;1.95;;;;;;;;;;8327794;28;20025;-64
2022/12/27 18:53:44;;;;;;;7.55;2.58;;;;;;;;;;8321481;28;20373;-64
2022/12/27 18:57:45;;;;;;;4.80;2.10;;;;;;;;;;8320951;28;20045;-63
2022/12/27 19:01:46;;;;;;;2.72;2.08;;;;;;;;;;8322900;28;20249;-63
2022/12/27 19:06:06;;;;;;;5.63;2.08;;;;;;;;;;8319197;28;20167;-64
2022/12/27 19:10:15;;;;;;;4.22;2.35;;;;;;;;;;8321670;28;20483;-63
2022/12/27 19:14:15;;;;;;;4.68;2.60;;;;;;;;;;8318828;28;20387;-64
2022/12/27 19:18:30;;;;;;;5.35;2.85;;;;;;;;;;8320733;28;20075;-63
2022/12/27 19:22:41;;;;;;;12.20;2.92;;;;;;;;;;8321063;28;20029;-63
2022/12/27 19:26:41;;;;;;;6.38;4.00;;;;;;;;;;8320532;28;20144;-64
2022/12/27 19:30:46;;;;;;;5.13;3.15;;;;;;;;;;8323786;28;20059;-64
2022/12/27 19:34:49;;;;;;;6.60;3.38;;;;;;;;;;8321859;28;20036;-63
2022/12/27 19:38:49;;;;;;;7.55;3.85;;;;;;;;;;8322903;28;20028;-64
2022/12/27 19:42:50;;;;;;;7.60;3.83;;;;;;;;;;8324380;28;20032;-64
2022/12/27 19:46:50;;;;;;;9.35;4.93;;;;;;;;;;8321046;28;20497;-63
2022/12/27 19:50:51;;;;;;;8.73;4.90;;;;;;;;;;8321691;28;20029;-63
2022/12/27 19:55:00;;;;;;;6.22;3.20;;;;;;;;;;8321327;28;20102;-63
2022/12/27 19:59:00;;;;;;;6.22;2.60;;;;;;;;;;8313900;28;20456;-63
2022/12/27 20:03:01;;;;;;;8.65;2.80;;;;;;;;;;8322411;28;20078;-63
2022/12/27 20:07:01;;;;;;;7.03;2.33;;;;;;;;;;8320740;28;20457;-64
2022/12/27 20:11:02;;;;;;;4.40;2.28;;;;;;;;;;8320507;28;20468;-63
2022/12/27 20:15:03;;;;;;;5.45;2.03;;;;;;;;;;8319009;28;20040;-64
2022/12/27 20:19:03;;;;;;;7.75;2.00;;;;;;;;;;8319671;28;20505;-63
2022/12/27 20:23:04;;;;;;;8.23;1.90;;;;;;;;;;8320780;28;20028;-63
2022/12/27 20:27:04;;;;;;;6.03;1.92;;;;;;;;;;8321574;28;20073;-63
2022/12/27 20:31:07;;;;;;;3.72;1.77;;;;;;;;;;8319542;28;20493;-63
2022/12/27 20:35:08;;;;;;;8.07;2.50;;;;;;;;;;8321364;28;20300;-64
2022/12/27 20:39:09;;;;;;;14.40;6.75;;;;;;;;;;8323046;28;20812;-63
2022/12/27 20:43:09;;;;;;;12.27;5.00;;;;;;;;;;8319171;28;20022;-67
2022/12/27 20:47:09;;;;;;;4.82;2.33;;;;;;;;;;8321745;28;20526;-62
2022/12/27 20:51:11;;;;;;;5.75;2.50;;;;;;;;;;8320234;28;20028;-62
2022/12/27 20:55:12;;;;;;;5.28;2.22;;;;;;;;;;8317359;28;20298;-62
2022/12/27 20:59:12;;;;;;;5.18;2.00;;;;;;;;;;8324802;28;20027;-62
2022/12/27 21:03:13;;;;;;;5.97;2.42;;;;;;;;;;8320840;28;20033;-62
2022/12/27 21:07:13;;;;;;;9.23;2.70;;;;;;;;;;8320362;28;21475;-62
2022/12/27 21:11:15;;;;;;;7.03;2.70;;;;;;;;;;8317568;28;21356;-62
2022/12/27 21:15:15;;;;;;;3.95;2.33;;;;;;;;;;8320197;28;20035;-62
2022/12/27 21:19:15;;;;;;;6.45;2.55;;;;;;;;;;8317486;28;20017;-62
2022/12/27 21:23:16;;;;;;;5.60;2.20;;;;;;;;;;8322127;28;20029;-62
2022/12/27 21:27:16;;;;;;;4.03;1.90;;;;;;;;;;8319213;28;20325;-63
2022/12/27 21:31:17;;;;;;;5.73;1.93;;;;;;;;;;8321194;28;20468;-62
2022/12/27 21:35:17;;;;;;;6.78;2.22;;;;;;;;;;8320256;28;20313;-62
2022/12/27 21:39:17;;;;;;;4.68;2.20;;;;;;;;;;8325218;28;20039;-63
2022/12/27 21:43:17;;;;;;;3.88;2.30;;;;;;;;;;8325402;28;20675;-63
2022/12/27 21:47:17;;;;;;;7.78;2.50;;;;;;;;;;8326305;28;20058;-63
2022/12/27 21:51:18;;;;;;;3.83;2.70;;;;;;;;;;8324737;28;20025;-63
2022/12/27 21:55:18;;;;;;;8.30;2.90;;;;;;;;;;8325199;28;20060;-63
2022/12/27 21:59:19;;;;;;;7.05;2.70;;;;;;;;;;8325982;28;20020;-63
2022/12/27 22:03:19;;;;;;;7.53;3.30;;;;;;;;;;8321840;28;20696;-63
2022/12/27 22:07:19;;;;;;;6.68;2.78;;;;;;;;;;8323824;28;20029;-63
2022/12/27 22:11:20;;;;;;;3.38;2.55;;;;;;;;;;8324275;28;20024;-63
2022/12/27 22:15:20;;;;;;;4.03;2.47;;;;;;;;;;8319255;28;20033;-63
2022/12/27 22:19:20;;;;;;;2.60;2.40;;;;;;;;;;8323859;28;20021;-62
2022/12/27 22:23:21;;;;;;;8.57;2.83;;;;;;;;;;8325600;28;20279;-62
2022/12/27 22:27:21;;;;;;;5.68;2.85;;;;;;;;;;8325640;28;20484;-62
2022/12/27 22:31:23;;;;;;;7.60;2.63;;;;;;;;;;8324733;28;20087;-62
2022/12/27 22:35:24;;;;;;;5.32;2.78;;;;;;;;;;8327222;28;20029;-62
2022/12/27 22:39:24;;;;;;;6.15;2.50;;;;;;;;;;8328636;28;20098;-62
2022/12/27 22:43:24;;;;;;;7.05;2.85;;;;;;;;;;8326575;28;20024;-62
2022/12/27 22:47:24;;;;;;;5.75;3.20;;;;;;;;;;8326009;28;20028;-63
2022/12/27 22:51:27;;;;;;;6.68;3.65;;;;;;;;;;8327950;28;20028;-63
2022/12/27 22:55:27;;;;;;;6.00;2.67;;;;;;;;;;8325126;28;20520;-63
2022/12/27 22:59:27;;;;;;;4.85;2.63;;;;;;;;;;8330423;28;20017;-63
2022/12/27 23:03:27;;;;;;;4.35;2.80;;;;;;;;;;8324929;28;20131;-63
2022/12/27 23:07:27;;;;;;;7.35;2.67;;;;;;;;;;8327575;28;20108;-64
2022/12/27 23:11:29;;;;;;;7.93;3.10;;;;;;;;;;8326405;28;20020;-63
2022/12/27 23:15:29;;;;;;;7.70;3.08;;;;;;;;;;8324429;28;20045;-63
2022/12/27 23:19:29;;;;;;;5.13;2.80;;;;;;;;;;8328499;28;20036;-63
2022/12/27 23:23:30;;;;;;;4.85;2.90;;;;;;;;;;8325937;28;20699;-63
2022/12/27 23:27:30;;;;;;;6.90;2.80;;;;;;;;;;8325516;28;20033;-63
2022/12/27 23:31:30;;;;;;;5.70;2.80;;;;;;;;;;8325161;28;20209;-62
2022/12/27 23:35:31;;;;;;;5.00;2.90;;;;;;;;;;8325665;28;20059;-62
2022/12/27 23:39:31;;;;;;;3.17;2.65;;;;;;;;;;8324274;28;20149;-62
2022/12/27 23:43:33;;;;;;;10.75;3.38;;;;;;;;;;8324665;28;20647;-62
2022/12/27 23:47:33;;;;;;;8.77;3.85;;;;;;;;;;8321820;28;20037;-62
2022/12/27 23:51:33;;;;;;;6.60;4.35;;;;;;;;;;8324017;28;20365;-63
2022/12/27 23:55:33;;;;;;;4.47;3.38;;;;;;;;;;8324243;28;20120;-62
2022/12/27 23:59:33;;;;;;;9.88;5.50;;;;;;;;;;8327554;28;20040;-63
